Historyczne dane pomiarowe

Dodano dane terminowe – wersja testowa.

Dane z okresu 1951-2019

Wersja bazy: 1.34 [2019-03-16, lista zmian], aktualizacja planowana na 2019-04-15

Dane meteo z obszaru Polski uzyskane na podstawie danych udostępnionych przez Instytut Meteorologii i Gospodarki Wodnej – Państwowy Instytut Badawczy.

 

Wybierz Datę:    

       

TemperaturaWilgotnośćWiatrCiśnienieOpadyŚniegCzas trwania zjawisk
 Stacja t tx tn tng RH VA  wxwx mslp ppp RRR   cm mm wxwxwxwxwxwxwx
1999-08-14 17.6 23.4 11.8- 68.0- 6.0 1.0---- 0.0------------
1999-08-13 16.6 20.7 13.8- 87.5- 5.0 5.0---- 2.7------------
1999-08-12 18.6 22.0 16.7- 83.0- 5.7 7.0---- 12.2------------
1999-08-11 18.5 21.4 16.3- 79.3- 6.0 7.3---- 0.0------------
1999-08-10 20.7 25.2 16.6- 82.3- 4.3 1.3---- 7.9------------
1999-08-09 22.3 28.4 16.9- 75.0- 4.3 2.0---- 0.0------------
1999-08-08 21.1 26.0 16.7- 86.8- 6.3 1.7---- 1.7------------
1999-08-07 21.1 25.1 17.0- 76.3- 6.7 2.0---- 7.2------------
1999-08-06 20.6 25.9 13.8- 72.8- 5.0 0.7---- 0.0------------
1999-08-05 20.2 25.0 13.0- 82.8- 5.7 2.0---- 0.0------------
1999-08-04 18.0 21.9 14.3- 74.0- 2.3 1.7---- 0.0------------
1999-08-03 18.9 22.6 15.5- 77.0- 1.7 2.3---- 0.0------------
1999-08-02 19.9 24.5 15.5- 80.5- 3.0 3.3---- 0.0------------
1999-08-01 20.0 24.5 13.9- 67.0- 0.7 2.3---- 0.0------------
1999-07-31 19.8 24.8 14.9- 70.0- 1.7 2.7---- 0.0------------
1999-07-30 19.7 25.5 13.7- 68.3- 0.7 1.7---- 0.0------------
1999-07-29 19.5 24.1 14.8- 71.8- 0.0 3.0---- 0.0------------
1999-07-28 18.9 23.5 13.9- 67.3- 1.0 4.3---- 0.0------------
1999-07-27 19.4 23.5 15.9- 64.0- 2.0 5.0---- 0.0------------
1999-07-26 19.1 22.6 17.4- 65.5- 5.7 5.3---- 0.0------------
1999-07-25 20.0 24.8 14.0- 78.8- 7.3 2.0---- 0.0------------
1999-07-24 16.6 18.8 14.0- 90.8- 8.0 3.0---- 1.0------------
1999-07-23 17.4 19.2 15.9- 91.5- 8.0 7.0---- 1.6------------
1999-07-22 18.1 21.8 14.6- 61.0- 6.3 6.0---- 0.0------------
1999-07-21 20.9 25.5 18.2- 83.3- 6.7 3.0---- 0.0------------
1999-07-20 23.3 27.5 18.2- 74.5- 6.0 1.0---- 1.5------------
1999-07-19 23.4 30.0 16.4- 73.3- 1.7 1.0---- 0.0------------
1999-07-18 20.2 24.0 15.8- 75.5- 4.3 1.3---- 0.0------------
1999-07-17 19.1 24.6 15.0- 81.5- 5.7 1.3---- 0.0------------
1999-07-16 17.7 22.2 13.5- 75.8- 6.3 3.3---- 1.7------------
1999-07-15 16.7 20.2 15.0- 80.8- 7.3 6.3---- 1.8------------
1999-07-14 20.8 24.8 18.2- 85.8- 7.0 5.3---- 0.0------------
1999-07-13 21.7 24.8 17.3- 75.3- 6.7 1.7---- 3.9------------
1999-07-12 20.3 25.3 16.5- 73.8- 2.7 2.7---- 0.0------------
1999-07-11 20.3 25.3 16.5- 73.8- 2.7 2.7---- 0.0------------
1999-07-10 18.6 21.8 15.0- 74.8- 0.7 5.3---- 0.0------------
1999-07-09 18.6 20.8 17.3- 69.8- 0.0 8.0---- 0.0------------
1999-07-08 19.4 22.2 16.7- 75.5- 4.0 5.3---- 0.0------------
1999-07-07 19.2 21.6 16.9- 81.3- 7.7 5.7---- 0.0------------
1999-07-06 19.4 21.9 17.8- 74.0- 7.7 5.3---- 0.0------------
1999-07-05 23.5 34.1 17.7- 73.3- 6.0 7.3---- 10.9------------
1999-07-04 21.2 26.4 17.4- 83.8- 2.3 5.3---- 0.0------------
1999-07-03 20.3 23.3 16.8- 77.5- 4.0 3.0---- 10.7------------
1999-07-02 18.3 22.4 14.0- 83.8- 7.3 3.0---- 0.0------------
1999-07-01 18.2 21.0 15.7- 85.8- 7.3 5.3---- 0.4------------
1999-06-30 21.6 28.0 17.8- 67.3- 5.3 5.3---- 10.7------------
1999-06-29 18.6 24.1 12.3- 72.8- 4.7 3.7---- 0.0------------
1999-06-28 19.4 27.4 16.0- 91.0- 7.7 5.0---- 7.2------------
1999-06-27 18.8 22.8 12.3- 79.3- 7.0 3.3---- 1.9------------
1999-06-26 15.5 20.6 10.0- 68.0- 6.0 5.3---- 0.0------------
1999-06-25 13.2 19.0 9.7- 87.5- 6.0 3.7---- 1.8------------
1999-06-24 15.6 19.2 13.5- 79.8- 7.0 3.3---- 8.6------------
1999-06-23 16.0 19.1 13.7- 63.8- 5.3 9.3---- 0.0------------
1999-06-22 15.2 17.0 13.7- 71.8- 7.7 11.0---- 0.0------------
1999-06-21 15.8 21.6 12.8- 82.0- 6.3 9.3---- 0.6------------
1999-06-20 19.3 25.2 12.5- 70.0- 5.0 7.3---- 12.6------------
1999-06-19 17.0 19.9 13.7- 80.8- 7.7 5.3---- 0.0------------
1999-06-18 17.7 21.8 14.7- 78.3- 6.0 8.7---- 0.0------------
1999-06-17 19.1 24.2 12.2- 71.5- 5.7 2.7---- 6.9------------
1999-06-16 17.9 21.4 13.2- 68.8- 1.0 2.7---- 0.0------------
261.8 ms

 

Źródłem pochodzenia danych jest Instytut Meteorologii i Gospodarki Wodnej – Państwowy Instytut Badawczy. Dane Instytutu Meteorologii i Gospodarki Wodnej – Państwowego Instytutu Badawczego zostały przetworzone.

Dane źródłowe można odnaleźć na stronie https://dane.imgw.pl